createdAt,value
2023-03-25T00:01:21.291Z,98336.97
2023-03-25T00:03:54.244Z,98339.09
2023-03-25T00:06:23.205Z,98335.66
2023-03-25T00:08:52.003Z,98339.13
2023-03-25T00:11:21.260Z,98338.31
2023-03-25T00:13:50.671Z,98338.91
2023-03-25T00:16:20.049Z,98344.94
2023-03-25T00:18:52.275Z,98352.72
2023-03-25T00:21:21.845Z,98363.13
2023-03-25T00:23:50.689Z,98362.28
2023-03-25T00:26:19.871Z,98363.22
2023-03-25T00:28:48.656Z,98361.34
2023-03-25T00:31:17.759Z,98370.03
2023-03-25T00:33:46.652Z,98368.31
2023-03-25T00:36:15.693Z,98362.25
2023-03-25T00:38:46.560Z,98357.16
2023-03-25T00:41:26.414Z,98357.09
2023-03-25T00:43:59.945Z,98363.13
2023-03-25T00:46:33.620Z,98364.22
2023-03-25T00:49:03.080Z,98373.06
2023-03-25T00:51:34.816Z,98385.84
2023-03-25T00:54:23.146Z,98397.09
2023-03-25T00:56:54.276Z,98399.63
2023-03-25T00:59:23.575Z,98399.72
2023-03-25T01:01:57.880Z,98402.28
2023-03-25T01:04:31.324Z,98397.19
2023-03-25T01:07:04.054Z,98391.31
2023-03-25T01:09:37.755Z,98401.50
2023-03-25T01:12:11.214Z,98405.94
2023-03-25T01:14:47.076Z,98404.22
2023-03-25T01:17:18.637Z,98405.94
2023-03-25T01:19:55.451Z,98404.09
2023-03-25T01:22:29.406Z,98402.66
2023-03-25T01:25:02.804Z,98406.91
2023-03-25T01:27:35.386Z,98400.13
2023-03-25T01:30:10.058Z,98403.66
2023-03-25T01:32:43.490Z,98404.50
2023-03-25T01:35:17.642Z,98394.03
2023-03-25T01:37:57.535Z,98394.16
2023-03-25T01:40:32.468Z,98395.72
2023-03-25T01:43:06.524Z,98394.75
2023-03-25T01:45:40.835Z,98388.63
2023-03-25T01:48:19.016Z,98390.44
2023-03-25T01:51:02.970Z,98380.75
2023-03-25T01:53:37.438Z,98378.25
2023-03-25T01:56:12.126Z,98389.47
2023-03-25T01:58:47.771Z,98380.88
2023-03-25T02:01:25.730Z,98394.41
2023-03-25T02:04:05.968Z,98377.00
2023-03-25T02:06:59.819Z,98392.28
2023-03-25T02:09:35.104Z,98403.63
2023-03-25T02:12:12.303Z,98416.66
2023-03-25T02:14:45.265Z,98421.47
2023-03-25T02:17:27.731Z,98441.25
2023-03-25T02:20:36.305Z,98451.19
2023-03-25T02:23:30.940Z,98458.00
2023-03-25T02:26:18.674Z,98468.41
2023-03-25T02:28:55.257Z,98484.16
2023-03-25T02:32:14.404Z,98486.75
2023-03-25T02:35:04.683Z,98495.31
2023-03-25T02:38:01.103Z,98501.09
2023-03-25T02:40:50.422Z,98514.50
2023-03-25T02:43:42.495Z,98515.38
2023-03-25T02:46:16.876Z,98516.34
2023-03-25T02:49:09.628Z,98525.72
2023-03-25T02:52:04.532Z,98534.50
2023-03-25T02:54:37.947Z,98547.00
2023-03-25T02:57:09.311Z,98549.13
2023-03-25T02:59:41.509Z,98544.78
2023-03-25T03:02:12.450Z,98553.25
2023-03-25T03:04:53.624Z,98555.13
2023-03-25T03:07:33.255Z,98560.78
2023-03-25T03:10:24.441Z,98568.84
2023-03-25T03:12:58.830Z,98573.00
2023-03-25T03:15:42.546Z,98580.47
2023-03-25T03:18:43.174Z,98581.25
2023-03-25T03:21:24.197Z,98594.13
2023-03-25T03:24:09.013Z,98602.44
2023-03-25T03:26:59.970Z,98606.75
2023-03-25T03:29:47.657Z,98609.59
2023-03-25T03:32:44.409Z,98615.81
2023-03-25T03:35:20.214Z,98628.63
2023-03-25T03:37:59.256Z,98633.06
2023-03-25T03:40:31.549Z,98634.13
2023-03-25T03:43:13.445Z,98649.06
2023-03-25T03:45:47.518Z,98650.09
2023-03-25T03:49:27.494Z,98655.53
2023-03-25T03:52:08.115Z,98663.03
2023-03-25T03:54:54.601Z,98670.06
2023-03-25T03:57:33.631Z,98669.66
2023-03-25T04:00:19.280Z,98670.63
2023-03-25T04:03:10.090Z,98685.72
2023-03-25T04:05:40.729Z,98685.81
2023-03-25T04:08:22.294Z,98691.41
2023-03-25T04:11:00.112Z,98705.91
2023-03-25T04:13:37.611Z,98711.31
2023-03-25T04:16:08.328Z,98714.88
2023-03-25T04:18:37.586Z,98724.22
2023-03-25T04:21:06.690Z,98722.06
2023-03-25T04:23:35.815Z,98729.69
2023-03-25T04:26:04.874Z,98732.69
2023-03-25T04:28:33.932Z,98733.31
2023-03-25T04:31:06.397Z,98745.34
2023-03-25T04:33:36.899Z,98747.09
2023-03-25T04:36:07.723Z,98751.09
2023-03-25T04:38:38.623Z,98757.53
2023-03-25T04:41:09.458Z,98755.13
2023-03-25T04:43:40.188Z,98761.09
2023-03-25T04:46:15.094Z,98752.53
2023-03-25T04:48:46.118Z,98772.41
2023-03-25T04:51:17.010Z,98768.56
2023-03-25T04:53:45.943Z,98772.50
2023-03-25T04:56:17.845Z,98773.88
2023-03-25T04:58:47.675Z,98768.22
2023-03-25T05:01:31.514Z,98770.41
2023-03-25T05:04:06.513Z,98773.16
2023-03-25T05:06:39.406Z,98768.16
2023-03-25T05:09:12.434Z,98768.13
2023-03-25T05:11:42.818Z,98764.09
2023-03-25T05:14:13.003Z,98748.34
2023-03-25T05:16:42.508Z,98745.34
2023-03-25T05:19:11.533Z,98755.31
2023-03-25T05:21:42.143Z,98756.34
2023-03-25T05:24:13.033Z,98766.91
2023-03-25T05:26:43.561Z,98775.19
2023-03-25T05:29:15.924Z,98783.38
2023-03-25T05:31:47.027Z,98777.56
2023-03-25T05:34:17.967Z,98774.03
2023-03-25T05:36:47.234Z,98788.38
2023-03-25T05:39:16.210Z,98786.22
2023-03-25T05:41:46.723Z,98789.97
2023-03-25T05:44:15.812Z,98790.19
2023-03-25T05:46:45.045Z,98794.38
2023-03-25T05:49:14.216Z,98796.69
2023-03-25T05:51:43.031Z,98795.94
2023-03-25T05:54:12.251Z,98799.53
2023-03-25T05:56:42.412Z,98801.53
2023-03-25T05:59:11.414Z,98791.72
2023-03-25T06:01:40.285Z,98799.91
2023-03-25T06:04:10.993Z,98789.34
2023-03-25T06:06:40.738Z,98796.31
2023-03-25T06:09:09.815Z,98790.19
2023-03-25T06:11:41.971Z,98795.84
2023-03-25T06:14:11.336Z,98799.66
2023-03-25T06:16:40.483Z,98796.06
2023-03-25T06:19:10.527Z,98795.53
2023-03-25T06:21:39.803Z,98793.31
2023-03-25T06:24:09.303Z,98778.09
2023-03-25T06:26:38.149Z,98775.97
2023-03-25T06:29:07.112Z,98766.25
2023-03-25T06:31:35.974Z,98765.91
2023-03-25T06:34:05.146Z,98769.25
2023-03-25T06:36:35.649Z,98764.53
2023-03-25T06:39:06.351Z,98766.47
2023-03-25T06:41:37.115Z,98759.28
2023-03-25T06:44:26.446Z,98761.44
2023-03-25T06:47:13.653Z,98757.25
2023-03-25T06:49:47.694Z,98759.00
2023-03-25T06:52:28.843Z,98752.81
2023-03-25T06:54:58.059Z,98757.28
2023-03-25T06:57:26.939Z,98752.81
2023-03-25T06:59:55.893Z,98745.78
2023-03-25T07:02:24.717Z,98750.28
2023-03-25T07:04:53.734Z,98757.91
2023-03-25T07:07:22.505Z,98756.81
2023-03-25T07:09:56.991Z,98753.41
2023-03-25T07:12:26.001Z,98758.22
2023-03-25T07:14:59.404Z,98759.25
2023-03-25T07:17:30.089Z,98751.84
2023-03-25T07:20:00.009Z,98748.72
2023-03-25T07:22:28.960Z,98747.47
2023-03-25T07:24:59.413Z,98745.47
2023-03-25T07:27:29.190Z,98742.50
2023-03-25T07:30:07.972Z,98745.72
2023-03-25T07:32:38.157Z,98752.53
2023-03-25T07:35:10.261Z,98744.56
2023-03-25T07:37:39.381Z,98743.47
2023-03-25T07:40:08.850Z,98750.16
2023-03-25T07:42:39.487Z,98741.94
2023-03-25T07:45:18.503Z,98741.59
2023-03-25T07:47:51.213Z,98735.84
2023-03-25T07:50:24.425Z,98736.81
2023-03-25T07:52:54.710Z,98734.53
2023-03-25T07:55:23.552Z,98726.63
2023-03-25T07:57:52.953Z,98718.53
2023-03-25T08:00:22.179Z,98723.28
2023-03-25T08:02:51.582Z,98719.75
2023-03-25T08:05:30.012Z,98721.34
2023-03-25T08:08:02.099Z,98709.00
2023-03-25T08:10:31.407Z,98706.03
2023-03-25T08:13:00.581Z,98706.47
2023-03-25T08:16:07.857Z,98699.53
2023-03-25T08:18:37.059Z,98692.78
2023-03-25T08:21:09.694Z,98696.28
2023-03-25T08:23:39.113Z,98690.72
2023-03-25T08:26:08.060Z,98693.03
2023-03-25T08:28:37.052Z,98688.75
2023-03-25T08:31:09.870Z,98686.75
2023-03-25T08:33:41.849Z,98689.66
2023-03-25T08:36:15.026Z,98695.63
2023-03-25T08:38:44.020Z,98688.59
2023-03-25T08:41:12.796Z,98676.13
2023-03-25T08:43:43.545Z,98677.09
2023-03-25T08:46:14.345Z,98686.06
2023-03-25T08:48:45.060Z,98676.13
2023-03-25T08:51:13.995Z,98677.19
2023-03-25T08:53:42.759Z,98678.25
2023-03-25T08:56:12.400Z,98665.16
2023-03-25T08:58:41.696Z,98669.13
2023-03-25T09:01:10.698Z,98656.09
2023-03-25T09:03:39.644Z,98652.22
2023-03-25T09:06:10.071Z,98644.00
2023-03-25T09:08:39.122Z,98653.06
2023-03-25T09:11:08.259Z,98654.53
2023-03-25T09:13:37.307Z,98654.31
2023-03-25T09:16:06.736Z,98646.06
2023-03-25T09:18:37.725Z,98634.69
2023-03-25T09:21:07.155Z,98631.34
2023-03-25T09:23:36.225Z,98625.50
2023-03-25T09:26:06.214Z,98619.09
2023-03-25T09:28:35.274Z,98613.84
2023-03-25T09:31:04.004Z,98604.03
2023-03-25T09:33:33.328Z,98604.16
2023-03-25T09:36:03.144Z,98609.56
2023-03-25T09:38:32.070Z,98614.81
2023-03-25T09:41:06.560Z,98605.56
2023-03-25T09:44:04.140Z,98594.66
2023-03-25T09:46:34.048Z,98594.34
2023-03-25T09:49:03.161Z,98594.19
2023-03-25T09:51:37.624Z,98593.34
2023-03-25T09:54:28.747Z,98584.09
2023-03-25T09:57:03.664Z,98589.31
2023-03-25T09:59:50.064Z,98595.09
2023-03-25T10:02:49.689Z,98593.44
2023-03-25T10:05:19.840Z,98591.72
2023-03-25T10:08:14.454Z,98588.56
2023-03-25T10:11:09.135Z,98582.00
2023-03-25T10:13:38.111Z,98577.84
2023-03-25T10:16:27.174Z,98578.81
2023-03-25T10:19:52.127Z,98576.34
2023-03-25T10:22:33.731Z,98589.75
2023-03-25T10:25:06.567Z,98588.31
2023-03-25T10:27:45.726Z,98583.59
2023-03-25T10:30:16.789Z,98583.94
2023-03-25T10:32:50.760Z,98578.13
2023-03-25T10:35:44.335Z,98579.59
2023-03-25T10:38:21.647Z,98576.91
2023-03-25T10:40:54.223Z,98575.06
2023-03-25T10:43:31.230Z,98574.16
2023-03-25T10:46:28.766Z,98573.75
2023-03-25T10:48:57.867Z,98580.19
2023-03-25T10:51:37.195Z,98581.22
2023-03-25T10:54:06.493Z,98572.56
2023-03-25T10:56:39.483Z,98573.03
2023-03-25T10:59:26.815Z,98564.97
2023-03-25T11:01:57.182Z,98565.53
2023-03-25T11:04:37.929Z,98564.69
2023-03-25T11:07:19.092Z,98562.06
2023-03-25T11:09:48.361Z,98556.09
2023-03-25T11:12:30.160Z,98552.22
2023-03-25T11:15:07.554Z,98541.41
2023-03-25T11:17:36.842Z,98535.06
2023-03-25T11:20:18.571Z,98535.63
2023-03-25T11:22:52.330Z,98536.41
2023-03-25T11:25:32.513Z,98533.31
2023-03-25T11:28:06.445Z,98533.31
2023-03-25T11:30:35.398Z,98538.47
2023-03-25T11:33:15.603Z,98535.47
2023-03-25T11:35:47.618Z,98537.47
2023-03-25T11:38:30.193Z,98523.41
2023-03-25T11:40:59.792Z,98530.25
2023-03-25T11:43:37.724Z,98512.63
2023-03-25T11:46:18.309Z,98511.19
2023-03-25T11:48:48.238Z,98509.78
2023-03-25T11:51:23.634Z,98505.19
2023-03-25T11:54:06.608Z,98512.56
2023-03-25T11:56:43.936Z,98504.41
2023-03-25T11:59:39.053Z,98516.25
2023-03-25T12:02:30.850Z,98517.66
2023-03-25T12:05:13.368Z,98520.97
2023-03-25T12:07:48.312Z,98532.94
2023-03-25T12:10:49.301Z,98518.56
2023-03-25T12:13:56.778Z,98521.97
2023-03-25T12:16:45.292Z,98528.91
2023-03-25T12:19:27.229Z,98531.19
2023-03-25T12:22:26.971Z,98538.22
2023-03-25T12:25:21.987Z,98541.47
2023-03-25T12:28:09.757Z,98538.38
2023-03-25T12:30:47.665Z,98539.00
2023-03-25T12:33:48.988Z,98541.03
2023-03-25T12:36:21.113Z,98535.31
2023-03-25T12:39:39.441Z,98544.09
2023-03-25T12:42:34.490Z,98543.97
2023-03-25T12:45:33.522Z,98552.56
2023-03-25T12:48:32.363Z,98551.16
2023-03-25T12:51:01.628Z,98552.06
2023-03-25T12:53:47.751Z,98549.59
2023-03-25T12:56:33.656Z,98550.72
2023-03-25T12:59:21.141Z,98551.66
2023-03-25T13:02:05.175Z,98556.16
2023-03-25T13:04:42.858Z,98556.53
2023-03-25T13:07:17.722Z,98553.41
2023-03-25T13:10:18.055Z,98563.81
2023-03-25T13:12:59.709Z,98566.56
2023-03-25T13:15:44.185Z,98573.22
2023-03-25T13:19:06.545Z,98573.50
2023-03-25T13:21:41.532Z,98576.97
2023-03-25T13:24:19.481Z,98579.28
2023-03-25T13:26:51.129Z,98575.38
2023-03-25T13:29:46.883Z,98585.03
2023-03-25T13:32:24.564Z,98595.53
2023-03-25T13:35:08.207Z,98592.22
2023-03-25T13:37:47.792Z,98598.47
2023-03-25T13:40:28.776Z,98601.97
2023-03-25T13:43:04.682Z,98612.91
2023-03-25T13:45:57.798Z,98616.00
2023-03-25T13:48:30.510Z,98621.50
2023-03-25T13:51:04.303Z,98628.91
2023-03-25T13:53:48.910Z,98623.09
2023-03-25T13:57:03.331Z,98618.94
2023-03-25T13:59:57.594Z,98629.50
2023-03-25T14:02:52.548Z,98625.66
2023-03-25T14:06:22.986Z,98641.28
2023-03-25T14:09:25.483Z,98639.69
2023-03-25T14:12:10.354Z,98633.19
2023-03-25T14:14:50.249Z,98637.06
2023-03-25T14:17:23.719Z,98644.69
2023-03-25T14:19:56.485Z,98643.44
2023-03-25T14:22:32.854Z,98640.38
2023-03-25T14:25:02.148Z,98646.81
2023-03-25T14:27:36.546Z,98651.78
2023-03-25T14:30:23.076Z,98647.16
2023-03-25T14:32:55.346Z,98657.78
2023-03-25T14:35:36.766Z,98665.22
2023-03-25T14:38:08.828Z,98674.69
2023-03-25T14:40:54.774Z,98681.44
2023-03-25T14:43:33.996Z,98682.84
2023-03-25T14:46:14.050Z,98682.56
2023-03-25T14:49:06.771Z,98693.91
2023-03-25T14:51:42.482Z,98690.34
2023-03-25T14:54:36.874Z,98693.44
2023-03-25T14:57:30.874Z,98692.78
2023-03-25T15:00:18.294Z,98700.53
2023-03-25T15:02:54.131Z,98702.56
2023-03-25T15:05:28.596Z,98701.13
2023-03-25T15:08:12.691Z,98705.75
2023-03-25T15:11:04.273Z,98698.16
2023-03-25T15:13:56.229Z,98703.34
2023-03-25T15:16:49.196Z,98709.75
2023-03-25T15:19:23.817Z,98714.91
2023-03-25T15:21:59.288Z,98717.69
2023-03-25T15:24:34.355Z,98719.91
2023-03-25T15:27:32.362Z,98732.31
2023-03-25T15:30:26.036Z,98731.75
2023-03-25T15:33:31.890Z,98744.91
2023-03-25T15:36:20.905Z,98745.28
2023-03-25T15:39:22.103Z,98755.97
2023-03-25T15:42:18.970Z,98761.31
2023-03-25T15:45:02.855Z,98774.00
2023-03-25T15:47:55.524Z,98770.97
2023-03-25T15:50:54.221Z,98783.16
2023-03-25T15:53:42.802Z,98782.66
2023-03-25T15:56:15.673Z,98785.63
2023-03-25T15:58:56.567Z,98788.69
2023-03-25T16:01:32.223Z,98781.88
2023-03-25T16:04:41.676Z,98797.44
2023-03-25T16:07:16.290Z,98794.63
2023-03-25T16:09:50.063Z,98791.47
2023-03-25T16:12:25.083Z,98792.72
2023-03-25T16:14:54.528Z,98796.41
2023-03-25T16:17:32.115Z,98789.88
2023-03-25T16:20:02.666Z,98786.78
2023-03-25T16:22:34.400Z,98800.75
2023-03-25T16:25:15.210Z,98798.63
2023-03-25T16:27:53.148Z,98780.88
2023-03-25T16:30:38.804Z,98794.63
2023-03-25T16:33:14.658Z,98795.75
2023-03-25T16:35:50.753Z,98796.56
2023-03-25T16:38:26.300Z,98802.31
2023-03-25T16:41:14.816Z,98804.59
2023-03-25T16:43:44.379Z,98805.78
2023-03-25T16:46:16.822Z,98806.69
2023-03-25T16:48:55.203Z,98796.41
2023-03-25T16:51:33.090Z,98804.25
2023-03-25T16:54:02.327Z,98816.31
2023-03-25T16:56:37.624Z,98809.59
2023-03-25T16:59:09.657Z,98812.25
2023-03-25T17:01:43.369Z,98815.28
2023-03-25T17:04:19.572Z,98807.31
2023-03-25T17:06:55.656Z,98804.72
2023-03-25T17:09:40.902Z,98796.00
2023-03-25T17:12:21.502Z,98806.84
2023-03-25T17:14:52.692Z,98805.94
2023-03-25T17:17:24.453Z,98803.41
2023-03-25T17:19:54.036Z,98806.56
2023-03-25T17:22:29.820Z,98805.03
2023-03-25T17:25:00.612Z,98805.94
2023-03-25T17:27:37.072Z,98802.19
2023-03-25T17:30:30.726Z,98793.28
2023-03-25T17:33:11.592Z,98796.69
2023-03-25T17:35:42.802Z,98800.03
2023-03-25T17:38:29.969Z,98804.25
2023-03-25T17:41:01.249Z,98801.81
2023-03-25T17:43:33.534Z,98805.06
2023-03-25T17:46:03.970Z,98801.19
2023-03-25T17:48:33.016Z,98799.41
2023-03-25T17:51:02.305Z,98806.59
2023-03-25T17:53:31.845Z,98814.66
2023-03-25T17:56:04.239Z,98815.97
2023-03-25T17:58:33.265Z,98808.84
2023-03-25T18:01:02.377Z,98822.22
2023-03-25T18:03:33.681Z,98813.50
2023-03-25T18:06:02.599Z,98810.97
2023-03-25T18:08:31.851Z,98818.91
2023-03-25T18:11:01.020Z,98810.25
2023-03-25T18:13:29.910Z,98802.47
2023-03-25T18:15:59.243Z,98802.56
2023-03-25T18:18:28.319Z,98800.16
2023-03-25T18:20:57.326Z,98790.66
2023-03-25T18:23:26.131Z,98793.34
2023-03-25T18:25:55.241Z,98796.09
2023-03-25T18:28:25.815Z,98789.19
2023-03-25T18:30:56.348Z,98789.22
2023-03-25T18:33:25.541Z,98795.25
2023-03-25T18:35:54.512Z,98784.81
2023-03-25T18:38:25.805Z,98789.19
2023-03-25T18:40:56.873Z,98795.19
2023-03-25T18:43:25.914Z,98790.16
2023-03-25T18:45:55.078Z,98784.16
2023-03-25T18:48:24.420Z,98783.22
2023-03-25T18:50:57.714Z,98778.78
2023-03-25T18:53:29.270Z,98780.63
2023-03-25T18:56:01.755Z,98778.97
2023-03-25T18:58:33.828Z,98781.63
2023-03-25T19:01:05.025Z,98781.56
2023-03-25T19:03:40.432Z,98786.88
2023-03-25T19:06:16.075Z,98775.59
2023-03-25T19:08:46.455Z,98773.41
2023-03-25T19:11:21.614Z,98769.25
2023-03-25T19:13:52.394Z,98769.06
2023-03-25T19:16:21.978Z,98769.75
2023-03-25T19:18:50.776Z,98771.47
2023-03-25T19:21:20.740Z,98770.47
2023-03-25T19:23:49.598Z,98753.72
2023-03-25T19:26:18.587Z,98753.59
2023-03-25T19:28:47.269Z,98749.50
2023-03-25T19:31:17.387Z,98751.31
2023-03-25T19:33:46.561Z,98745.13
2023-03-25T19:36:17.634Z,98749.44
2023-03-25T19:38:46.961Z,98753.41
2023-03-25T19:41:17.276Z,98762.97
2023-03-25T19:43:46.803Z,98762.97
2023-03-25T19:46:15.824Z,98763.69
2023-03-25T19:48:44.730Z,98761.19
2023-03-25T19:51:13.653Z,98754.28
2023-03-25T19:53:42.646Z,98752.53
2023-03-25T19:56:14.792Z,98757.00
2023-03-25T19:58:43.763Z,98749.50
2023-03-25T20:01:13.095Z,98749.31
2023-03-25T20:03:43.025Z,98739.88
2023-03-25T20:06:11.983Z,98751.09
2023-03-25T20:08:41.183Z,98744.13
2023-03-25T20:11:12.827Z,98738.22
2023-03-25T20:13:41.864Z,98745.91
2023-03-25T20:16:10.899Z,98745.00
2023-03-25T20:18:42.188Z,98742.41
2023-03-25T20:21:12.694Z,98735.56
2023-03-25T20:23:41.616Z,98743.41
2023-03-25T20:26:10.443Z,98746.00
2023-03-25T20:28:41.671Z,98743.41
2023-03-25T20:31:22.655Z,98739.75
2023-03-25T20:33:52.306Z,98737.25
2023-03-25T20:36:22.497Z,98735.59
2023-03-25T20:38:57.722Z,98729.53
2023-03-25T20:41:27.747Z,98722.59
2023-03-25T20:43:56.657Z,98718.25
2023-03-25T20:46:29.173Z,98712.28
2023-03-25T20:48:58.834Z,98707.75
2023-03-25T20:51:27.573Z,98714.97
2023-03-25T20:53:57.868Z,98705.41
2023-03-25T20:56:27.109Z,98701.09
2023-03-25T20:58:55.932Z,98696.88
2023-03-25T21:01:24.996Z,98702.84
2023-03-25T21:03:54.326Z,98691.56
2023-03-25T21:06:26.671Z,98681.19
2023-03-25T21:08:59.558Z,98683.72
2023-03-25T21:11:32.392Z,98684.75
2023-03-25T21:14:01.364Z,98677.84
2023-03-25T21:16:30.248Z,98683.81
2023-03-25T21:19:02.702Z,98680.31
2023-03-25T21:21:32.166Z,98681.81
2023-03-25T21:24:00.960Z,98676.97
2023-03-25T21:26:29.840Z,98662.25
2023-03-25T21:29:00.707Z,98662.31
2023-03-25T21:31:30.303Z,98664.84
2023-03-25T21:33:59.375Z,98662.34
2023-03-25T21:36:30.717Z,98662.19
2023-03-25T21:39:01.687Z,98651.03
2023-03-25T21:41:31.507Z,98655.44
2023-03-25T21:44:00.238Z,98656.22
2023-03-25T21:46:29.409Z,98654.59
2023-03-25T21:49:02.086Z,98653.72
2023-03-25T21:51:33.226Z,98656.34
2023-03-25T21:54:02.372Z,98655.56
2023-03-25T21:56:35.595Z,98663.41
2023-03-25T21:59:05.519Z,98655.69
2023-03-25T22:01:34.483Z,98653.84
2023-03-25T22:04:03.893Z,98645.28
2023-03-25T22:06:35.981Z,98639.91
2023-03-25T22:09:08.948Z,98638.56
2023-03-25T22:11:41.491Z,98636.84
2023-03-25T22:14:10.599Z,98630.56
2023-03-25T22:16:39.513Z,98631.50
2023-03-25T22:19:09.553Z,98620.22
2023-03-25T22:21:38.425Z,98629.91
2023-03-25T22:24:09.257Z,98630.75
2023-03-25T22:26:43.285Z,98629.09
2023-03-25T22:29:12.411Z,98624.03
2023-03-25T22:31:41.928Z,98619.69
2023-03-25T22:34:16.133Z,98616.16
2023-03-25T22:36:50.998Z,98614.50
2023-03-25T22:39:21.938Z,98613.75
2023-03-25T22:41:50.907Z,98607.84
2023-03-25T22:44:22.255Z,98604.34
2023-03-25T22:46:52.356Z,98605.94
2023-03-25T22:49:21.547Z,98603.47
2023-03-25T22:51:50.485Z,98600.97
2023-03-25T22:54:19.296Z,98605.22
2023-03-25T22:56:48.399Z,98600.16
2023-03-25T22:59:17.249Z,98605.28
2023-03-25T23:01:46.297Z,98599.31
2023-03-25T23:04:15.264Z,98607.19
2023-03-25T23:06:47.048Z,98612.22
2023-03-25T23:09:42.223Z,98612.31
2023-03-25T23:12:13.526Z,98608.97
2023-03-25T23:14:48.583Z,98607.06
2023-03-25T23:17:17.555Z,98618.28
2023-03-25T23:19:46.998Z,98617.78
2023-03-25T23:22:18.269Z,98624.53
2023-03-25T23:24:47.161Z,98619.59
2023-03-25T23:27:16.259Z,98630.16
2023-03-25T23:29:46.031Z,98626.53
2023-03-25T23:32:15.532Z,98622.97
2023-03-25T23:34:44.469Z,98631.13
2023-03-25T23:37:13.285Z,98630.03
2023-03-25T23:39:42.993Z,98632.56
2023-03-25T23:42:11.687Z,98639.44
2023-03-25T23:44:40.612Z,98633.75
2023-03-25T23:47:09.354Z,98626.25
2023-03-25T23:49:39.275Z,98626.03
2023-03-25T23:52:12.141Z,98633.53
2023-03-25T23:54:41.591Z,98624.00
2023-03-25T23:57:10.558Z,98625.72
2023-03-25T23:59:39.615Z,98622.28
